Omskiy-141 — UGZK — position and weather

sailwx.info

Track history (hours):
 
Tides and Currents Weather Stations Pressure Air Temp Water Temp Dewpoint Dewpoint Depression Visibility Wind Speed Wind Dir Waves Ship Positions

Omskiy-141

Last reported at 2017-Mar-27 17:33 UTC. Time now 2017-Mar-28 06:07 UTC.
Position N 55°09' E 018°36'.

Length 108 m; draft 2.6 m.

Type: Cargo ship. MMSI: 273310600.

Date/timePositionNaut miles runAvg speedWind from/ knotsBaromVisibWave heightAir tempDewpointWater temp
2017-Mar-27 17:33N 55°09' E 018°36'9 8.4
2017-Mar-27 16:32N 55°06' E 018°22'10 8.4
2017-Mar-27 15:21N 55°03' E 018°06'99 8.4
2017-Mar-27 03:28N 54°26' E 015°25'16 8.1
2017-Mar-27 01:32N 54°19' E 015°02'40 6.7
2017-Mar-26 19:33N 53°45' E 014°25'9 9.1
2017-Mar-26 18:33N 53°38' E 014°35'2 0.0
2017-Mar-24 17:29N 53°36' E 014°35'7 7.7
2017-Mar-24 16:33N 53°42' E 014°29'  
2017-Mar-18 13:29N 55°11' E 018°41'7 7.7
2017-Mar-18 12:33N 55°08' E 018°30'11 7.9
2017-Mar-18 11:08N 55°03' E 018°12'5 8.2
2017-Mar-18 10:30N 55°01' E 018°04'  
Track history (hours):
 
Tides and Currents Weather Stations Pressure Air Temp Water Temp Dewpoint Dewpoint Depression Visibility Wind Speed Wind Dir Waves Ship Positions

Omskiy-141

Last reported at 2017-Mar-27 17:33 UTC. Time now 2017-Mar-28 06:07 UTC.
Position N 55°09' E 018°36'.

Length 108 m; draft 2.6 m.

Type: Cargo ship. MMSI: 273310600.

Date/timePositionNaut miles runAvg speedWind from/ knotsBaromVisibWave heightAir tempDewpointWater temp
2017-Mar-27 17:33N 55°09' E 018°36'9 8.4
2017-Mar-27 16:32N 55°06' E 018°22'10 8.4
2017-Mar-27 15:21N 55°03' E 018°06'99 8.4
2017-Mar-27 03:28N 54°26' E 015°25'16 8.1
2017-Mar-27 01:32N 54°19' E 015°02'40 6.7
2017-Mar-26 19:33N 53°45' E 014°25'9 9.1
2017-Mar-26 18:33N 53°38' E 014°35'2 0.0
2017-Mar-24 17:29N 53°36' E 014°35'7 7.7
2017-Mar-24 16:33N 53°42' E 014°29'  
2017-Mar-18 13:29N 55°11' E 018°41'7 7.7
2017-Mar-18 12:33N 55°08' E 018°30'11 7.9
2017-Mar-18 11:08N 55°03' E 018°12'5 8.2
2017-Mar-18 10:30N 55°01' E 018°04'  

Dump ship's entire track history